昆明 の空港の天気 - METARとTAF

昆明巫家餽国際空港 ( ZPPP / KMG ) - 中華人民共和国 雲南省昆明市
飛行場実況気象(Metar)
観測時間03/29 05:00 CST (03/28 21:00 UTC)
風向・風速南南西 5m/s
視程7000m
天気現象
なし
気温11℃
湿度94%
気圧1020hPa
METARZPPP 282100Z 21005MPS 7000 NSC 11/10 Q1020 NOSIG
過去の天気等 Google飛行場航空写真 Wunderground天気予報

過去48時間のMETAR

飛行場予報(TAF)
発表時間: 3/28 21:04 CST (3/28 13:04 UTC)
予報対象時間: 29日2時 CST ~ 30日2時 CST
風向・風速南西 6m/s
視程10km以上
全天の4割程度の雲 雲底高度 790m
29日10時 CST ~ 29日11時 CST に徐々に
風向・風速南西 12m/s 瞬間風速 17m/s
29日14時 CST ~ 29日18時 CST に一時的に
天気現象弱い雷雨
少しの積乱雲 雲底高度 790m
全天の4割程度の雲 雲底高度 790m
TAF ZPPP 281304Z 2818/2918 22006MPS 9999 SCT026 TX18/2908Z TN08/2823Z
BECMG 2902/2903 22012G17MPS
TEMPO 2906/2910 -TSRA FEW026CB SCT026